Time;durP1;ratioP1;P1;durP2;ratioP2;P2;SDS_P1;SDS_P2;PMS_P1;PMS_P2;Temp;Humidity;BMP_temperature;BMP_pressure;BME280_temperature;BME280_humidity;BME280_pressure;Samples;Min_cycle;Max_cycle;Signal;HPM_P1;HPM_P2
2023/05/08 00:00:45;;;;;;;13.10;5.80;;;;;;;3.68;75.21;101251.94;105485;1260;59177;-69
2023/05/08 00:03:34;;;;;;;14.50;5.90;;;;;;;3.63;75.23;101253.14;105598;1258;60574;-70
2023/05/08 00:06:22;;;;;;;14.60;5.70;;;;;;;3.60;75.41;101252.69;105819;1260;69672;-68
2023/05/08 00:09:10;;;;;;;12.80;5.50;;;;;;;3.58;75.82;101257.84;105500;1256;66477;-68
2023/05/08 00:11:58;;;;;;;18.40;5.80;;;;;;;3.55;75.67;101262.13;105659;1256;73285;-69
2023/05/08 00:14:46;;;;;;;12.60;5.50;;;;;;;3.54;75.92;101262.88;105748;1263;59315;-69
2023/05/08 00:17:35;;;;;;;13.50;5.50;;;;;;;3.51;75.94;101259.63;105892;1256;61058;-67
2023/05/08 00:20:23;;;;;;;12.40;5.50;;;;;;;3.48;76.17;101260.58;105790;1261;73515;-68
2023/05/08 00:23:11;;;;;;;13.50;5.70;;;;;;;3.44;76.04;101258.77;105626;1256;67058;-68
2023/05/08 00:26:03;;;;;;;16.60;7.70;;;;;;;3.38;76.64;101255.60;105740;1256;73005;-68
2023/05/08 00:28:51;;;;;;;14.80;7.10;;;;;;;3.33;76.70;101256.12;105856;1256;59236;-68
2023/05/08 00:31:39;;;;;;;15.70;6.10;;;;;;;3.29;76.60;101256.93;105683;1260;59858;-68
2023/05/08 00:34:28;;;;;;;13.70;6.00;;;;;;;3.22;76.82;101257.11;105726;1256;71420;-68
2023/05/08 00:37:16;;;;;;;12.40;5.90;;;;;;;3.18;76.89;101259.34;105754;1260;68147;-69
2023/05/08 00:40:08;;;;;;;12.50;5.90;;;;;;;3.14;77.53;101258.73;105640;1257;72319;-68
2023/05/08 00:42:56;;;;;;;13.80;5.60;;;;;;;3.13;77.63;101258.25;105783;1256;59304;-67
2023/05/08 00:45:45;;;;;;;13.20;5.60;;;;;;;3.10;77.71;101259.20;105719;1260;59685;-70
2023/05/08 00:48:35;;;;;;;13.70;5.40;;;;;;;3.09;77.89;101258.86;105781;1257;71344;-68
2023/05/08 00:51:33;;;;;;;14.10;5.30;;;;;;;3.06;77.87;101257.54;105589;1258;67842;-69
2023/05/08 00:54:22;;;;;;;11.60;4.80;;;;;;;3.05;78.10;101259.01;104711;1264;1003050;-66
2023/05/08 00:57:11;;;;;;;12.60;5.00;;;;;;;3.02;78.17;101262.94;105620;1265;59793;-66
2023/05/08 01:00:01;;;;;;;14.80;5.00;;;;;;;2.98;78.26;101261.30;105353;1265;59313;-67
2023/05/08 01:02:49;;;;;;;10.40;4.70;;;;;;;2.93;78.36;101266.68;105235;1264;70912;-67
2023/05/08 01:05:39;;;;;;;12.50;4.30;;;;;;;2.87;78.70;101266.65;105351;1259;67436;-68
2023/05/08 01:08:27;;;;;;;12.70;5.10;;;;;;;2.82;79.00;101266.27;105541;1265;71023;-69
2023/05/08 01:11:42;;;;;;;11.70;4.90;;;;;;;2.77;79.30;101267.63;105387;1259;59859;-69
2023/05/08 01:14:56;;;;;;;11.60;4.80;;;;;;;2.73;79.42;101270.72;105639;1260;59262;-69
2023/05/08 01:17:59;;;;;;;9.40;4.70;;;;;;;2.66;79.50;101266.30;105734;1265;71695;-70
2023/05/08 01:21:15;;;;;;;9.50;4.20;;;;;;;2.69;80.10;101271.15;105445;1259;65626;-69
2023/05/08 01:24:48;;;;;;;10.60;4.50;;;;;;;2.69;80.05;101272.18;105643;1256;71308;-71
2023/05/08 01:28:33;;;;;;;12.00;4.70;;;;;;;2.69;80.46;101276.76;105845;1260;59168;-70
2023/05/08 01:32:11;;;;;;;10.20;4.10;;;;;;;2.66;80.84;101279.45;105433;1267;59290;-71
2023/05/08 01:35:25;;;;;;;8.60;4.20;;;;;;;2.64;81.45;101279.50;105117;1263;72370;-69
2023/05/08 01:38:33;;;;;;;8.10;3.70;;;;;;;2.61;81.54;101281.88;105578;1263;67724;-71
2023/05/08 01:41:29;;;;;;;8.60;4.00;;;;;;;2.56;81.86;101283.04;105129;1265;71106;-69
2023/05/08 01:44:23;;;;;;;10.30;4.40;;;;;;;2.52;82.06;101283.48;105382;1263;59179;-71
2023/05/08 01:47:14;;;;;;;14.30;4.90;;;;;;;2.49;82.15;101283.73;105129;1262;60476;-73
2023/05/08 01:50:22;;;;;;;13.10;4.50;;;;;;;2.48;82.44;101284.48;105157;1266;72540;-72
2023/05/08 01:53:22;;;;;;;11.40;4.10;;;;;;;2.47;82.26;101283.45;105515;1266;68931;-71
2023/05/08 01:56:16;;;;;;;10.40;4.40;;;;;;;2.47;82.26;101282.74;105371;1262;71362;-72
2023/05/08 01:59:07;;;;;;;9.50;3.70;;;;;;;2.46;82.32;101280.31;104620;1264;1002992;-70
2023/05/08 02:01:58;;;;;;;10.20;4.50;;;;;;;2.44;82.16;101282.27;106106;1256;61141;-70
2023/05/08 02:04:48;;;;;;;10.80;4.40;;;;;;;2.40;82.20;101285.02;106190;1262;70726;-71
2023/05/08 02:07:37;;;;;;;12.60;5.00;;;;;;;2.35;82.26;101283.36;105417;1256;1003728;-70
2023/05/08 02:10:27;;;;;;;9.50;4.20;;;;;;;2.31;82.23;101287.50;105683;1263;71616;-70
2023/05/08 02:13:18;;;;;;;9.20;4.50;;;;;;;2.28;82.48;101287.23;105978;1256;59155;-71
2023/05/08 02:16:11;;;;;;;10.90;4.40;;;;;;;2.26;82.77;101289.72;105795;1256;59740;-70
2023/05/08 02:19:01;;;;;;;11.30;4.00;;;;;;;2.26;82.69;101291.81;105631;1260;72455;-70
2023/05/08 02:21:50;;;;;;;10.70;4.20;;;;;;;2.26;82.55;101291.48;105798;1260;67825;-71
2023/05/08 02:24:40;;;;;;;11.10;4.30;;;;;;;2.25;82.77;101289.58;105411;1257;72446;-71
2023/05/08 02:27:30;;;;;;;11.10;4.70;;;;;;;2.24;82.61;101297.33;105340;1262;59330;-70
2023/05/08 02:30:20;;;;;;;10.60;4.60;;;;;;;2.21;82.89;101297.36;104990;1256;1003614;-70
2023/05/08 02:33:10;;;;;;;14.50;4.60;;;;;;;2.18;82.82;101298.48;105391;1264;72993;-71
2023/05/08 02:35:59;;;;;;;12.10;4.80;;;;;;;2.13;82.79;101294.39;105622;1265;67761;-70
2023/05/08 02:38:54;;;;;;;11.50;4.70;;;;;;;2.09;82.85;101295.89;105733;1261;70525;-71
2023/05/08 02:41:43;;;;;;;11.20;4.80;;;;;;;2.07;82.93;101299.09;106001;1256;59324;-70
2023/05/08 02:44:32;;;;;;;11.10;4.70;;;;;;;2.08;83.07;101299.08;105528;1256;59858;-71
2023/05/08 02:47:26;;;;;;;12.90;4.40;;;;;;;2.09;83.05;101301.33;105708;1256;70879;-71
2023/05/08 02:50:32;;;;;;;11.20;4.70;;;;;;;2.10;83.26;101297.10;105787;1260;67935;-71
2023/05/08 02:53:31;;;;;;;10.10;4.40;;;;;;;2.11;82.97;101301.11;105663;1260;73102;-70
2023/05/08 02:56:47;;;;;;;10.40;4.50;;;;;;;2.11;83.09;101306.02;105386;1262;59650;-70
2023/05/08 02:59:44;;;;;;;11.90;4.60;;;;;;;2.09;83.06;101303.59;105644;1261;59797;-69
2023/05/08 03:02:49;;;;;;;13.10;4.60;;;;;;;2.07;83.10;101307.84;105702;1257;72181;-71
2023/05/08 03:05:43;;;;;;;12.00;4.70;;;;;;;2.07;83.27;101310.30;105768;1260;67547;-71
2023/05/08 03:08:34;;;;;;;14.40;4.50;;;;;;;2.09;83.41;101316.02;105805;1256;71320;-70
2023/05/08 03:11:33;;;;;;;11.80;5.00;;;;;;;2.12;83.30;101317.53;105845;1256;59364;-71
2023/05/08 03:14:26;;;;;;;12.10;5.00;;;;;;;2.16;83.32;101318.84;105535;1257;60083;-70
2023/05/08 03:17:17;;;;;;;9.00;4.30;;;;;;;2.22;83.39;101316.10;105655;1256;70999;-70
2023/05/08 03:20:09;;;;;;;9.40;4.20;;;;;;;2.26;83.25;101315.29;105441;1257;66920;-71
2023/05/08 03:23:00;;;;;;;12.80;4.60;;;;;;;2.33;83.11;101314.09;105525;1256;72451;-71
2023/05/08 03:25:51;;;;;;;11.70;4.70;;;;;;;2.35;83.00;101309.48;105617;1264;59234;-70
2023/05/08 03:28:53;;;;;;;12.30;4.90;;;;;;;2.38;82.75;101308.72;105640;1257;59606;-71
2023/05/08 03:31:50;;;;;;;11.30;4.50;;;;;;;2.39;82.23;101312.19;105742;1262;72094;-71
2023/05/08 03:34:40;;;;;;;11.90;5.50;;;;;;;2.40;82.37;101310.08;105810;1256;66464;-69
2023/05/08 03:37:28;;;;;;;11.20;5.00;;;;;;;2.41;82.13;101310.40;105502;1261;72550;-70
2023/05/08 03:40:20;;;;;;;11.30;5.00;;;;;;;2.44;82.23;101311.20;105671;1260;59283;-71
2023/05/08 03:43:10;;;;;;;13.70;5.20;;;;;;;2.49;82.61;101307.21;105530;1266;59537;-70
2023/05/08 03:46:00;;;;;;;12.20;5.10;;;;;;;2.57;82.42;101309.48;105979;1258;72290;-69
2023/05/08 03:48:52;;;;;;;11.40;4.70;;;;;;;2.65;82.25;101307.71;105570;1260;66558;-68
2023/05/08 03:51:42;;;;;;;13.20;4.90;;;;;;;2.71;82.19;101308.61;105528;1266;72412;-70
2023/05/08 03:54:30;;;;;;;10.90;4.40;;;;;;;2.78;81.85;101312.46;105224;1267;59228;-72
2023/05/08 03:57:22;;;;;;;9.20;4.10;;;;;;;2.83;81.60;101315.14;105408;1266;59196;-71
2023/05/08 04:00:24;;;;;;;11.00;4.90;;;;;;;2.87;81.37;101312.04;106069;1259;70695;-71
2023/05/08 04:03:23;;;;;;;10.70;4.50;;;;;;;2.92;81.47;101315.61;105794;1263;67913;-70
2023/05/08 04:06:27;;;;;;;11.20;6.00;;;;;;;2.98;81.34;101313.52;105251;1260;71110;-73
2023/05/08 04:09:34;;;;;;;12.00;6.60;;;;;;;3.05;81.07;101315.44;105831;1263;59357;-72
2023/05/08 04:13:01;;;;;;;10.60;5.80;;;;;;;3.17;81.00;101314.79;105540;1273;60665;-72
2023/05/08 04:15:59;;;;;;;10.70;5.40;;;;;;;3.30;80.44;101317.77;105515;1268;72077;-72
2023/05/08 04:18:53;;;;;;;14.50;6.00;;;;;;;3.43;80.22;101319.52;105072;1273;67136;-74
2023/05/08 04:21:43;;;;;;;9.90;5.30;;;;;;;3.57;79.78;101320.71;104881;1273;72736;-71
2023/05/08 04:24:36;;;;;;;9.80;5.20;;;;;;;3.72;79.47;101324.13;105005;1272;59477;-71
2023/05/08 04:27:24;;;;;;;11.00;4.90;;;;;;;3.89;79.01;101326.10;104962;1267;60469;-68
2023/05/08 04:30:14;;;;;;;10.80;5.10;;;;;;;4.03;78.55;101324.79;104880;1271;72310;-70
2023/05/08 04:33:05;;;;;;;12.20;5.60;;;;;;;4.19;78.19;101326.77;105093;1265;66528;-72
2023/05/08 04:35:53;;;;;;;13.30;5.30;;;;;;;4.36;77.56;101327.50;105309;1265;72605;-71
2023/05/08 04:38:42;;;;;;;12.20;5.20;;;;;;;4.53;76.88;101329.92;105650;1260;59351;-69
2023/05/08 04:41:31;;;;;;;11.20;4.90;;;;;;;4.71;76.06;101330.92;106373;1261;59958;-72
2023/05/08 04:44:20;;;;;;;10.70;4.60;;;;;;;4.91;75.52;101336.60;106892;1268;71242;-71
2023/05/08 04:47:08;;;;;;;11.30;4.90;;;;;;;5.11;74.38;101338.89;106570;1261;68777;-70
2023/05/08 04:49:56;;;;;;;12.10;4.90;;;;;;;5.33;73.22;101337.77;105961;1263;70773;-73
2023/05/08 04:52:48;;;;;;;11.20;4.60;;;;;;;5.57;72.56;101336.36;106704;1259;59253;-80
2023/05/08 04:55:38;;;;;;;11.70;4.70;;;;;;;5.80;71.40;101339.41;106538;1267;59363;-79
2023/05/08 04:58:27;;;;;;;12.10;4.40;;;;;;;6.04;70.05;101338.73;106783;1266;71009;-79
2023/05/08 05:01:20;;;;;;;11.70;4.50;;;;;;;6.23;69.27;101327.58;106310;1266;66388;-80
2023/05/08 05:04:11;;;;;;;14.60;5.10;;;;;;;6.65;67.98;101341.57;107126;1267;70272;-81
2023/05/08 05:07:00;;;;;;;11.60;4.20;;;;;;;7.05;66.35;101344.88;106893;1262;59217;-81
2023/05/08 05:09:51;;;;;;;12.20;5.20;;;;;;;7.88;64.28;101344.23;106081;1268;59883;-79
2023/05/08 05:12:39;;;;;;;12.50;4.20;;;;;;;9.31;61.62;101337.77;106231;1264;72311;-78
2023/05/08 05:15:28;;;;;;;13.20;4.90;;;;;;;11.01;55.26;101335.48;106301;1266;66398;-81
2023/05/08 05:18:17;;;;;;;13.00;5.70;;;;;;;12.71;52.26;101329.88;106714;1264;72716;-82
2023/05/08 05:21:05;;;;;;;13.10;5.00;;;;;;;14.27;47.64;101327.33;106639;1262;59262;-80
2023/05/08 05:23:54;;;;;;;16.60;5.40;;;;;;;15.92;44.28;101328.52;106454;1260;59244;-81
2023/05/08 05:26:43;;;;;;;11.80;5.10;;;;;;;17.23;40.72;101321.84;106524;1265;71353;-80
2023/05/08 05:29:34;;;;;;;13.10;4.80;;;;;;;18.58;37.69;101322.19;107149;1260;66713;-80
2023/05/08 05:32:23;;;;;;;11.50;4.50;;;;;;;19.71;35.07;101323.08;106260;1257;72801;-80
2023/05/08 05:35:12;;;;;;;9.70;4.30;;;;;;;20.75;32.78;101321.18;106926;1257;59201;-82
2023/05/08 05:38:04;;;;;;;11.40;4.90;;;;;;;21.66;30.62;101321.61;106721;1256;60022;-83
2023/05/08 05:40:54;;;;;;;13.60;5.40;;;;;;;22.29;29.06;101320.77;107064;1260;70654;-83
2023/05/08 05:43:43;;;;;;;18.20;5.90;;;;;;;22.88;27.86;101317.93;105217;1258;1473355;-84
2023/05/08 05:46:33;;;;;;;14.20;5.30;;;;;;;23.67;26.59;101318.43;106304;1263;71428;-81
2023/05/08 05:49:23;;;;;;;19.30;6.90;;;;;;;24.06;24.86;101320.79;106307;1260;59338;-82
2023/05/08 05:52:13;;;;;;;18.50;6.80;;;;;;;24.49;24.87;101321.91;105994;1261;59347;-79
2023/05/08 05:55:01;;;;;;;23.70;7.50;;;;;;;24.85;23.70;101319.15;106279;1259;72426;-78
2023/05/08 05:57:50;;;;;;;23.20;6.80;;;;;;;25.26;23.14;101308.64;105707;1265;68341;-80
2023/05/08 06:00:38;;;;;;;20.80;6.40;;;;;;;25.63;22.28;101315.77;106115;1262;72619;-81
2023/05/08 06:03:27;;;;;;;23.50;7.20;;;;;;;25.84;22.61;101319.35;106613;1262;59172;-78
2023/05/08 06:06:16;;;;;;;27.40;6.70;;;;;;;26.38;22.37;101319.34;106027;1264;59315;-79
2023/05/08 06:09:05;;;;;;;20.80;5.60;;;;;;;26.90;21.22;101315.98;105808;1257;72358;-78
2023/05/08 06:11:56;;;;;;;16.20;5.40;;;;;;;27.14;20.58;101321.15;105861;1260;66334;-81
2023/05/08 06:14:45;;;;;;;21.20;6.20;;;;;;;27.13;20.57;101319.38;105988;1260;72745;-79
2023/05/08 06:17:33;;;;;;;20.20;5.30;;;;;;;27.09;20.35;101321.45;106074;1254;59141;-79
2023/05/08 06:20:23;;;;;;;18.50;4.80;;;;;;;27.15;20.77;101320.39;106092;1254;59218;-80
2023/05/08 06:23:13;;;;;;;23.10;4.90;;;;;;;27.14;20.11;101320.34;106075;1254;72116;-78
2023/05/08 06:26:02;;;;;;;20.70;5.20;;;;;;;26.92;20.28;101319.17;106239;1260;67896;-81
2023/05/08 06:28:50;;;;;;;22.80;4.60;;;;;;;26.87;20.31;101323.63;106080;1260;71081;-78
2023/05/08 06:31:39;;;;;;;20.10;5.10;;;;;;;26.71;20.31;101327.54;105985;1255;59720;-78
2023/05/08 06:34:27;;;;;;;22.50;5.10;;;;;;;26.35;20.55;101326.95;105950;1254;59344;-79
2023/05/08 06:37:15;;;;;;;22.60;4.50;;;;;;;26.63;20.79;101327.63;106103;1263;72060;-78
2023/05/08 06:40:06;;;;;;;18.60;5.00;;;;;;;26.99;20.28;101324.39;106160;1255;66557;-81
2023/05/08 06:42:59;;;;;;;27.70;5.00;;;;;;;27.58;19.79;101323.27;106530;1260;72020;-84
2023/05/08 06:45:48;;;;;;;23.20;4.10;;;;;;;28.04;19.18;101328.34;106578;1263;59512;-83
2023/05/08 06:48:37;;;;;;;22.20;4.10;;;;;;;28.42;18.49;101327.16;106563;1258;59767;-82
2023/05/08 06:51:26;;;;;;;13.60;3.30;;;;;;;28.67;17.86;101325.25;106547;1257;71110;-86
2023/05/08 06:54:17;;;;;;;16.50;3.30;;;;;;;28.59;17.60;101324.75;107022;1264;66300;-87
2023/05/08 06:57:08;;;;;;;15.90;3.80;;;;;;;28.62;17.52;101313.36;107703;1260;72889;-84
2023/05/08 07:00:00;;;;;;;12.10;3.10;;;;;;;28.77;17.21;101326.39;108130;1263;57241;-83
2023/05/08 07:02:53;;;;;;;11.00;2.80;;;;;;;28.75;16.81;101328.77;107118;1257;59536;-84
2023/05/08 07:05:44;;;;;;;8.60;2.60;;;;;;;28.69;16.86;101326.52;106384;1265;71030;-81
2023/05/08 07:08:38;;;;;;;10.40;2.30;;;;;;;29.12;16.08;101322.02;106402;1260;66339;-81
2023/05/08 07:11:28;;;;;;;9.50;2.50;;;;;;;29.71;15.98;101316.68;106645;1260;72664;-81
2023/05/08 07:14:16;;;;;;;11.30;2.60;;;;;;;30.05;16.03;101315.27;106691;1260;59339;-81
2023/05/08 07:17:05;;;;;;;10.40;2.90;;;;;;;30.44;15.69;101317.19;106061;1257;60359;-81
2023/05/08 07:19:53;;;;;;;10.10;2.60;;;;;;;30.88;15.09;101315.74;106008;1263;70730;-82
2023/05/08 07:22:43;;;;;;;8.60;2.40;;;;;;;31.07;14.95;101318.67;105904;1264;67262;-74
2023/05/08 07:25:31;;;;;;;10.50;1.90;;;;;;;30.57;12.89;101319.80;105709;1265;71188;-71
2023/05/08 07:28:19;;;;;;;6.40;1.70;;;;;;;30.51;12.60;101319.81;105845;1261;59434;-79
2023/05/08 07:31:08;;;;;;;7.80;1.90;;;;;;;30.30;12.64;101315.45;107889;1261;60105;-79
2023/05/08 07:33:59;;;;;;;7.30;1.80;;;;;;;30.16;13.10;101312.98;107251;1261;70948;-76
2023/05/08 07:36:48;;;;;;;9.00;2.00;;;;;;;30.33;13.67;101313.42;107443;1259;68061;-79
2023/05/08 07:39:36;;;;;;;7.70;2.20;;;;;;;29.67;13.08;101313.61;106605;1260;72762;-74
2023/05/08 07:42:25;;;;;;;7.60;2.50;;;;;;;29.62;13.90;101311.10;105940;1260;59275;-75
2023/05/08 07:45:15;;;;;;;9.20;2.30;;;;;;;30.09;13.73;101309.16;106616;1262;59199;-75
2023/05/08 07:48:07;;;;;;;7.10;2.10;;;;;;;30.31;12.78;101313.34;106507;1259;73215;-80
2023/05/08 07:50:55;;;;;;;10.50;2.20;;;;;;;30.34;12.71;101305.25;105914;1266;67988;-75
2023/05/08 07:53:44;;;;;;;6.10;1.90;;;;;;;30.27;12.92;101312.69;105725;1263;71615;-73
2023/05/08 07:56:32;;;;;;;8.10;2.40;;;;;;;30.45;13.53;101305.16;105508;1266;59392;-74
2023/05/08 07:59:20;;;;;;;8.40;2.20;;;;;;;30.56;14.44;101306.87;105609;1267;59382;-74
2023/05/08 08:02:09;;;;;;;6.50;1.80;;;;;;;30.74;13.35;101306.48;105581;1261;70986;-75
2023/05/08 08:04:58;;;;;;;5.80;1.80;;;;;;;30.93;13.09;101308.05;105612;1259;66681;-75
2023/05/08 08:07:46;;;;;;;6.90;2.10;;;;;;;31.10;13.55;101306.39;105447;1273;72489;-76
2023/05/08 08:10:35;;;;;;;9.00;2.10;;;;;;;31.09;12.95;101303.23;105562;1264;59312;-74
2023/05/08 08:13:23;;;;;;;5.70;1.70;;;;;;;30.96;13.02;101302.20;105664;1263;59646;-72
2023/05/08 08:16:12;;;;;;;6.70;1.70;;;;;;;30.94;13.01;101305.71;105556;1258;72158;-74
2023/05/08 08:19:00;;;;;;;8.90;2.00;;;;;;;30.78;12.61;101309.14;105790;1263;68330;-72
2023/05/08 08:21:48;;;;;;;7.10;2.20;;;;;;;30.75;13.36;101303.59;105525;1267;71117;-74
2023/05/08 08:24:37;;;;;;;5.90;2.00;;;;;;;30.89;13.19;101315.09;105872;1261;59376;-76
2023/05/08 08:27:25;;;;;;;6.60;1.90;;;;;;;31.02;12.86;101306.42;105605;1260;59182;-74
2023/05/08 08:30:13;;;;;;;7.40;2.00;;;;;;;30.63;12.57;101312.11;106139;1264;70981;-73
2023/05/08 08:33:06;;;;;;;6.60;2.20;;;;;;;30.83;12.93;101306.23;105613;1260;66096;-75
2023/05/08 08:35:54;;;;;;;7.70;3.30;;;;;;;31.04;13.73;101306.79;105468;1258;72671;-72
2023/05/08 08:38:42;;;;;;;6.20;2.20;;;;;;;31.03;13.43;101316.72;105864;1260;59402;-76
2023/05/08 08:41:31;;;;;;;7.20;2.20;;;;;;;31.14;12.99;101314.98;105752;1260;59557;-77
2023/05/08 08:44:20;;;;;;;9.00;2.20;;;;;;;31.18;12.33;101317.15;106036;1263;72870;-77
2023/05/08 08:47:11;;;;;;;8.20;2.50;;;;;;;30.74;12.79;101316.91;105783;1264;68174;-78
2023/05/08 08:50:02;;;;;;;12.80;5.00;;;;;;;30.82;13.18;101324.11;105913;1260;72469;-77
2023/05/08 08:53:26;;;;;;;11.60;3.30;;;;;;;30.89;13.66;101322.96;105999;1255;59241;-73
2023/05/08 08:56:15;;;;;;;20.80;3.40;;;;;;;30.96;14.04;101320.16;105892;1254;60536;-77
2023/05/08 08:59:05;;;;;;;8.80;2.30;;;;;;;30.16;12.59;101323.18;106625;1255;72105;-76
2023/05/08 09:02:05;;;;;;;8.80;2.30;;;;;;;29.86;13.05;101319.83;106022;1254;67848;-74
2023/05/08 09:04:53;;;;;;;9.00;3.00;;;;;;;30.05;13.88;101312.80;105995;1254;72742;-78
2023/05/08 09:07:42;;;;;;;8.90;2.60;;;;;;;29.85;13.90;101320.16;106688;1254;59311;-72
2023/05/08 09:10:30;;;;;;;11.90;3.10;;;;;;;29.09;13.93;101308.34;105744;1264;60834;-73
2023/05/08 09:13:18;;;;;;;11.00;3.30;;;;;;;29.29;14.28;101313.59;105711;1260;71222;-72
2023/05/08 09:16:10;;;;;;;12.20;3.50;;;;;;;29.43;13.83;101314.58;105706;1260;68035;-71
2023/05/08 09:18:59;;;;;;;10.70;2.60;;;;;;;29.61;13.75;101317.94;105748;1258;71052;-72
2023/05/08 09:21:48;;;;;;;7.00;2.30;;;;;;;29.45;12.85;101318.70;105833;1266;59346;-76
2023/05/08 09:24:56;;;;;;;7.10;2.30;;;;;;;29.62;13.16;101314.13;105836;1257;60424;-76
2023/05/08 09:27:47;;;;;;;8.20;2.70;;;;;;;29.77;13.69;101311.52;106235;1257;73230;-77
2023/05/08 09:30:51;;;;;;;9.10;3.00;;;;;;;29.86;13.94;101314.03;106070;1260;68088;-74
2023/05/08 09:33:44;;;;;;;8.00;2.90;;;;;;;30.05;13.74;101314.02;107217;1260;72438;-76
2023/05/08 09:36:33;;;;;;;7.20;2.10;;;;;;;29.88;13.52;101313.02;105851;1255;59224;-75
2023/05/08 09:39:24;;;;;;;7.10;2.50;;;;;;;29.88;13.56;101311.96;106006;1258;59480;-75
2023/05/08 09:42:13;;;;;;;9.40;2.40;;;;;;;29.87;13.21;101308.00;105928;1258;70707;-75
2023/05/08 09:45:01;;;;;;;7.40;2.60;;;;;;;29.94;13.28;101306.52;106416;1260;69030;-73
2023/05/08 09:47:49;;;;;;;7.20;2.20;;;;;;;30.03;13.22;101309.58;105993;1258;73289;-74
2023/05/08 09:50:38;;;;;;;6.10;2.30;;;;;;;29.97;12.82;101301.14;105704;1258;59339;-75
2023/05/08 09:53:33;;;;;;;8.50;2.50;;;;;;;29.92;13.27;101297.52;105686;1256;60072;-76
2023/05/08 09:56:40;;;;;;;7.30;2.50;;;;;;;29.56;12.85;101293.69;105746;1256;72195;-74
2023/05/08 09:59:30;;;;;;;8.20;2.40;;;;;;;29.72;13.76;101295.31;105702;1260;67841;-75
2023/05/08 10:02:21;;;;;;;7.10;2.30;;;;;;;30.03;13.90;101290.44;105628;1258;71227;-73
2023/05/08 10:05:30;;;;;;;7.70;2.50;;;;;;;30.31;13.44;101288.51;105579;1259;59302;-73
2023/05/08 10:08:22;;;;;;;7.80;2.20;;;;;;;30.62;13.18;101291.81;105665;1256;59333;-73
2023/05/08 10:11:18;;;;;;;8.70;2.10;;;;;;;30.87;13.09;101286.07;105878;1257;70836;-73
2023/05/08 10:14:08;;;;;;;9.00;2.60;;;;;;;31.04;12.84;101283.95;106071;1257;68939;-72
2023/05/08 10:16:59;;;;;;;8.30;2.40;;;;;;;30.89;13.31;101281.42;106134;1257;72402;-72
2023/05/08 10:19:52;;;;;;;9.60;2.80;;;;;;;30.64;12.75;101286.98;105897;1257;59286;-77
2023/05/08 10:22:43;;;;;;;10.30;3.10;;;;;;;30.63;13.36;101286.62;105996;1256;59638;-73
2023/05/08 10:25:34;;;;;;;7.20;2.70;;;;;;;30.69;13.44;101281.15;105856;1262;73053;-74
2023/05/08 10:29:00;;;;;;;9.60;4.40;;;;;;;30.59;13.30;101284.02;105859;1260;69107;-74
2023/05/08 10:31:57;;;;;;;8.80;2.70;;;;;;;30.17;13.45;101284.37;105696;1259;72628;-74
2023/05/08 10:34:51;;;;;;;6.40;2.20;;;;;;;29.99;13.39;101281.05;105640;1260;59305;-73
2023/05/08 10:37:41;;;;;;;9.80;2.70;;;;;;;29.86;13.97;101286.22;105716;1257;59973;-71
2023/05/08 10:40:29;;;;;;;8.60;2.40;;;;;;;29.75;13.99;101286.29;105859;1254;71377;-76
2023/05/08 10:43:19;;;;;;;7.40;2.50;;;;;;;29.57;13.85;101285.34;105941;1259;67968;-74
2023/05/08 10:46:47;;;;;;;8.60;2.30;;;;;;;29.63;13.76;101286.01;105876;1254;73465;-73
2023/05/08 10:50:11;;;;;;;8.10;2.50;;;;;;;29.66;13.54;101281.05;106328;1254;59214;-73
2023/05/08 10:54:00;;;;;;;9.70;2.30;;;;;;;29.81;13.47;101276.29;106040;1259;59529;-75
2023/05/08 10:56:48;;;;;;;7.10;2.30;;;;;;;29.86;12.95;101274.09;105491;1264;72338;-75
2023/05/08 10:59:37;;;;;;;7.40;2.10;;;;;;;29.82;12.77;101270.36;105531;1264;66323;-75
2023/05/08 11:02:31;;;;;;;10.10;2.40;;;;;;;30.14;12.98;101265.60;105448;1261;71425;-76
2023/05/08 11:05:19;;;;;;;7.90;2.30;;;;;;;30.45;13.16;101267.02;105334;1264;59366;-74
2023/05/08 11:08:18;;;;;;;5.90;2.00;;;;;;;30.55;12.62;101265.65;105394;1264;59350;-74
2023/05/08 11:11:32;;;;;;;11.60;2.60;;;;;;;30.25;12.94;101261.47;105376;1264;72194;-74
2023/05/08 11:14:22;;;;;;;16.50;3.20;;;;;;;29.85;13.29;101256.58;105673;1267;67663;-76
2023/05/08 11:17:13;;;;;;;10.00;2.50;;;;;;;29.37;13.46;101256.92;105344;1262;72740;-76
2023/05/08 11:20:04;;;;;;;16.90;3.10;;;;;;;28.70;13.44;101255.35;105424;1266;59830;-77
2023/05/08 11:22:52;;;;;;;8.00;2.60;;;;;;;28.06;14.44;101250.49;105347;1264;59494;-76
2023/05/08 11:25:43;;;;;;;7.30;2.40;;;;;;;27.45;14.60;101252.11;105257;1263;70784;-75
2023/05/08 11:28:57;;;;;;;7.80;2.70;;;;;;;26.94;14.87;101246.46;105472;1262;68356;-74
2023/05/08 11:31:50;;;;;;;13.30;2.80;;;;;;;26.44;15.54;101245.05;105351;1263;71434;-77
2023/05/08 11:34:42;;;;;;;8.90;2.60;;;;;;;26.01;16.16;101250.54;105633;1263;58920;-77
2023/05/08 11:37:32;;;;;;;8.40;2.50;;;;;;;25.52;16.67;101242.62;105921;1254;60156;-75
2023/05/08 11:40:44;;;;;;;7.40;2.20;;;;;;;24.91;17.03;101244.33;105707;1254;72012;-74
2023/05/08 11:43:54;;;;;;;6.90;2.20;;;;;;;24.51;17.78;101246.75;105982;1254;66631;-74
2023/05/08 11:46:51;;;;;;;7.50;2.20;;;;;;;24.11;17.89;101249.85;106427;1254;71278;-74
2023/05/08 11:49:39;;;;;;;11.40;3.00;;;;;;;23.57;18.88;101246.73;105873;1261;59621;-76
2023/05/08 11:52:32;;;;;;;8.30;2.70;;;;;;;22.92;19.10;101245.23;106086;1259;59209;-75
2023/05/08 11:55:21;;;;;;;6.50;2.50;;;;;;;22.28;19.35;101245.48;105630;1257;69896;-75
2023/05/08 11:58:14;;;;;;;9.50;2.70;;;;;;;21.74;19.86;101244.41;105613;1259;67989;-72
2023/05/08 12:01:02;;;;;;;9.00;2.80;;;;;;;21.23;20.91;101249.40;105582;1257;73742;-74
2023/05/08 12:04:04;;;;;;;8.10;2.80;;;;;;;20.88;21.12;101248.70;105623;1257;59357;-74
2023/05/08 12:06:57;;;;;;;7.20;2.50;;;;;;;20.39;21.47;101246.06;105754;1258;59267;-74
2023/05/08 12:09:46;;;;;;;7.80;2.80;;;;;;;20.10;22.08;101246.58;105571;1257;73236;-73
2023/05/08 12:12:40;;;;;;;7.50;2.70;;;;;;;19.87;22.02;101256.73;105631;1257;68036;-73
2023/05/08 12:15:28;;;;;;;8.60;2.80;;;;;;;19.52;22.34;101253.83;105377;1267;72529;-75
2023/05/08 12:18:17;;;;;;;8.30;2.80;;;;;;;19.31;23.09;101249.16;105468;1268;59258;-75
2023/05/08 12:21:05;;;;;;;8.40;2.90;;;;;;;19.15;22.92;101248.03;105394;1260;61417;-73
2023/05/08 12:23:57;;;;;;;7.00;2.50;;;;;;;18.98;22.95;101246.20;105315;1267;72313;-73
2023/05/08 12:26:49;;;;;;;10.10;2.60;;;;;;;18.81;23.07;101248.13;105494;1264;66612;-74
2023/05/08 12:29:37;;;;;;;7.40;2.50;;;;;;;18.56;23.04;101244.48;105683;1261;70102;-74
2023/05/08 12:32:28;;;;;;;7.70;2.30;;;;;;;18.35;23.38;101247.48;105861;1265;59447;-73
2023/05/08 12:35:20;;;;;;;6.60;2.40;;;;;;;18.19;23.74;101247.16;105833;1260;60355;-75
2023/05/08 12:38:10;;;;;;;7.00;2.20;;;;;;;18.18;23.96;101246.36;105984;1259;72081;-74
2023/05/08 12:41:03;;;;;;;6.90;2.70;;;;;;;18.10;23.39;101244.42;105542;1265;69078;-75
2023/05/08 12:43:51;;;;;;;7.20;2.60;;;;;;;17.98;24.02;101242.83;105588;1260;71624;-74
2023/05/08 12:46:52;;;;;;;8.10;2.80;;;;;;;17.94;24.04;101237.41;105601;1254;59217;-73
2023/05/08 12:49:41;;;;;;;9.50;2.90;;;;;;;17.85;24.04;101230.83;105959;1254;60340;-73
2023/05/08 12:52:31;;;;;;;6.10;2.20;;;;;;;17.70;23.87;101236.88;105838;1260;72226;-74
2023/05/08 12:55:25;;;;;;;7.20;2.30;;;;;;;17.66;24.28;101237.02;105851;1260;68703;-74
2023/05/08 12:58:13;;;;;;;8.30;2.50;;;;;;;17.68;24.16;101239.19;106918;1256;71091;-73
2023/05/08 13:01:13;;;;;;;8.00;2.80;;;;;;;17.64;23.74;101233.80;107330;1259;59184;-72
2023/05/08 13:04:01;;;;;;;7.60;2.40;;;;;;;17.63;24.09;101236.52;107462;1256;60193;-75
2023/05/08 13:06:55;;;;;;;8.00;2.50;;;;;;;17.69;23.75;101230.27;106119;1256;72012;-75
2023/05/08 13:10:04;;;;;;;8.00;2.40;;;;;;;17.62;23.69;101229.16;105867;1261;68122;-75
2023/05/08 13:12:52;;;;;;;6.80;2.40;;;;;;;17.58;23.92;101230.79;105979;1260;72987;-74